createdAt,value
2022-08-28T00:00:24.536Z,101758.38
2022-08-28T00:02:51.417Z,101760.94
2022-08-28T00:05:18.933Z,101762.66
2022-08-28T00:07:47.784Z,101765.56
2022-08-28T00:10:16.311Z,101763.84
2022-08-28T00:12:43.661Z,101763.00
2022-08-28T00:15:12.948Z,101761.28
2022-08-28T00:17:40.076Z,101761.28
2022-08-28T00:20:08.638Z,101768.50
2022-08-28T00:22:35.538Z,101772.25
2022-08-28T00:25:01.887Z,101769.69
2022-08-28T00:27:47.095Z,101769.69
2022-08-28T00:30:13.487Z,101763.34
2022-08-28T00:32:39.927Z,101766.75
2022-08-28T00:35:07.375Z,101777.38
2022-08-28T00:37:33.775Z,101768.63
2022-08-28T00:40:00.228Z,101768.81
2022-08-28T00:42:27.486Z,101764.34
2022-08-28T00:44:53.852Z,101766.94
2022-08-28T00:47:20.211Z,101767.09
2022-08-28T00:49:51.023Z,101763.69
2022-08-28T00:52:18.758Z,101764.53
2022-08-28T00:54:58.822Z,101764.34
2022-08-28T00:57:28.419Z,101762.50
2022-08-28T00:59:54.952Z,101770.03
2022-08-28T01:02:21.466Z,101763.69
2022-08-28T01:04:48.732Z,101773.63
2022-08-28T01:07:15.626Z,101772.75
2022-08-28T01:09:44.321Z,101774.66
2022-08-28T01:12:15.163Z,101770.22
2022-08-28T01:14:41.935Z,101768.47
2022-08-28T01:17:09.179Z,101776.69
2022-08-28T01:19:38.007Z,101779.28
2022-08-28T01:22:42.932Z,101782.34
2022-08-28T01:25:12.265Z,101778.44
2022-08-28T01:27:41.792Z,101778.44
2022-08-28T01:30:10.299Z,101775.69
2022-08-28T01:32:38.803Z,101783.22
2022-08-28T01:35:06.765Z,101791.44
2022-08-28T01:37:33.100Z,101785.78
2022-08-28T01:40:01.239Z,101790.41
2022-08-28T01:42:28.072Z,101772.94
2022-08-28T01:44:54.672Z,101781.84
2022-08-28T01:47:21.509Z,101780.28
2022-08-28T01:49:47.995Z,101779.44
2022-08-28T01:52:14.458Z,101775.69
2022-08-28T01:54:42.208Z,101782.88
2022-08-28T01:57:08.754Z,101786.66
2022-08-28T01:59:35.097Z,101785.63
2022-08-28T02:02:01.475Z,101784.75
2022-08-28T02:04:31.648Z,101789.41
2022-08-28T02:06:59.080Z,101786.81
2022-08-28T02:09:25.413Z,101789.69
2022-08-28T02:11:51.797Z,101795.19
2022-08-28T02:14:18.163Z,101797.03
2022-08-28T02:16:44.502Z,101794.31
2022-08-28T02:19:11.993Z,101795.19
2022-08-28T02:21:38.406Z,101795.19
2022-08-28T02:24:04.913Z,101798.06
2022-08-28T02:26:31.768Z,101796.38
2022-08-28T02:28:58.854Z,101802.91
2022-08-28T02:31:26.415Z,101799.97
2022-08-28T02:33:52.925Z,101801.84
2022-08-28T02:36:21.024Z,101798.94
2022-08-28T02:38:47.590Z,101802.72
2022-08-28T02:41:13.980Z,101801.84
2022-08-28T02:43:40.328Z,101806.50
2022-08-28T02:46:07.293Z,101804.75
2022-08-28T02:48:34.764Z,101802.00
2022-08-28T02:51:02.763Z,101800.31
2022-08-28T02:53:29.915Z,101800.16
2022-08-28T02:55:56.903Z,101799.28
2022-08-28T02:58:23.466Z,101804.75
2022-08-28T03:00:49.839Z,101807.50
2022-08-28T03:03:16.219Z,101797.56
2022-08-28T03:05:42.576Z,101805.97
2022-08-28T03:08:08.932Z,101801.34
2022-08-28T03:10:35.421Z,101799.28
2022-08-28T03:13:01.767Z,101801.69
2022-08-28T03:15:28.154Z,101802.72
2022-08-28T03:17:54.592Z,101807.16
2022-08-28T03:20:20.977Z,101803.56
2022-08-28T03:23:05.909Z,101805.84
2022-08-28T03:25:32.299Z,101804.09
2022-08-28T03:27:58.691Z,101804.25
2022-08-28T03:30:25.423Z,101809.59
2022-08-28T03:32:52.003Z,101811.34
2022-08-28T03:35:18.911Z,101807.56
2022-08-28T03:37:45.308Z,101811.63
2022-08-28T03:40:11.941Z,101806.84
2022-08-28T03:42:38.348Z,101809.59
2022-08-28T03:45:05.594Z,101813.38
2022-08-28T03:47:32.047Z,101817.97
2022-08-28T03:49:58.423Z,101821.41
2022-08-28T03:52:24.869Z,101823.59
2022-08-28T03:54:51.700Z,101824.47
2022-08-28T03:57:19.691Z,101832.88
2022-08-28T03:59:47.491Z,101836.47
2022-08-28T04:02:14.033Z,101834.75
2022-08-28T04:04:40.392Z,101830.13
2022-08-28T04:07:06.736Z,101829.94
2022-08-28T04:09:33.163Z,101829.94
2022-08-28T04:11:59.515Z,101840.38
2022-08-28T04:14:25.875Z,101837.66
2022-08-28T04:16:52.315Z,101838.53
2022-08-28T04:19:18.771Z,101844.03
2022-08-28T04:21:45.134Z,101844.03
2022-08-28T04:24:13.121Z,101838.00
2022-08-28T04:26:39.537Z,101838.88
2022-08-28T04:29:06.361Z,101838.88
2022-08-28T04:31:33.241Z,101842.47
2022-08-28T04:34:00.971Z,101842.47
2022-08-28T04:36:27.344Z,101843.66
2022-08-28T04:38:53.728Z,101849.97
2022-08-28T04:41:20.103Z,101841.09
2022-08-28T04:43:46.576Z,101852.06
2022-08-28T04:46:14.246Z,101854.78
2022-08-28T04:48:40.982Z,101853.91
2022-08-28T04:51:09.320Z,101859.25
2022-08-28T04:53:36.634Z,101862.00
2022-08-28T04:56:04.142Z,101856.50
2022-08-28T04:58:30.935Z,101864.88
2022-08-28T05:00:57.555Z,101861.13
2022-08-28T05:03:24.086Z,101862.00
2022-08-28T05:05:51.889Z,101865.91
2022-08-28T05:08:19.132Z,101863.16
2022-08-28T05:10:46.993Z,101865.06
2022-08-28T05:13:15.349Z,101866.09
2022-08-28T05:15:43.487Z,101865.91
2022-08-28T05:18:11.492Z,101870.53
2022-08-28T05:20:38.596Z,101872.44
2022-08-28T05:23:06.155Z,101876.03
2022-08-28T05:25:36.804Z,101879.28
2022-08-28T05:28:03.363Z,101875.00
2022-08-28T05:30:29.740Z,101876.72
2022-08-28T05:32:56.109Z,101883.22
2022-08-28T05:35:22.619Z,101888.69
2022-08-28T05:37:49.026Z,101887.69
2022-08-28T05:40:16.746Z,101893.19
2022-08-28T05:42:44.389Z,101890.44
2022-08-28T05:45:11.593Z,101890.25
2022-08-28T05:47:38.307Z,101887.34
2022-08-28T05:50:06.014Z,101891.97
2022-08-28T05:52:34.239Z,101893.69
2022-08-28T05:55:00.626Z,101897.28
2022-08-28T05:57:26.994Z,101902.91
2022-08-28T05:59:53.655Z,101901.22
2022-08-28T06:02:20.064Z,101901.41
2022-08-28T06:04:48.961Z,101895.91
2022-08-28T06:07:15.514Z,101903.09
2022-08-28T06:09:42.160Z,101903.25
2022-08-28T06:12:08.912Z,101902.72
2022-08-28T06:14:37.883Z,101902.72
2022-08-28T06:17:04.897Z,101904.63
2022-08-28T06:19:32.803Z,101915.75
2022-08-28T06:22:00.996Z,101912.84
2022-08-28T06:24:31.238Z,101909.09
2022-08-28T06:26:58.662Z,101918.84
2022-08-28T06:29:25.964Z,101912.00
2022-08-28T06:31:53.413Z,101906.34
2022-08-28T06:34:19.819Z,101906.50
2022-08-28T06:36:48.585Z,101918.31
2022-08-28T06:39:18.186Z,101913.69
2022-08-28T06:41:44.564Z,101914.72
2022-08-28T06:44:12.389Z,101923.28
2022-08-28T06:46:39.340Z,101916.94
2022-08-28T06:49:06.519Z,101923.47
2022-08-28T06:51:32.925Z,101923.47
2022-08-28T06:53:59.344Z,101926.88
2022-08-28T06:56:27.171Z,101925.00
2022-08-28T06:58:54.887Z,101922.44
2022-08-28T07:01:22.838Z,101916.25
2022-08-28T07:03:51.175Z,101921.91
2022-08-28T07:06:17.800Z,101923.78
2022-08-28T07:08:44.829Z,101935.75
2022-08-28T07:11:11.242Z,101930.28
2022-08-28T07:13:37.618Z,101932.16
2022-08-28T07:16:04.147Z,101936.78
2022-08-28T07:18:30.566Z,101932.16
2022-08-28T07:20:57.806Z,101932.16
2022-08-28T07:23:24.511Z,101933.91
2022-08-28T07:25:50.878Z,101932.00
2022-08-28T07:28:17.932Z,101936.63
2022-08-28T07:30:44.734Z,101927.38
2022-08-28T07:33:11.254Z,101938.34
2022-08-28T07:35:37.577Z,101932.53
2022-08-28T07:38:06.680Z,101937.69
2022-08-28T07:40:33.164Z,101938.69
2022-08-28T07:43:18.197Z,101935.44
2022-08-28T07:45:44.731Z,101943.81
2022-08-28T07:48:11.728Z,101928.25
2022-08-28T07:50:38.310Z,101944.19
2022-08-28T07:53:08.074Z,101942.47
2022-08-28T07:55:34.416Z,101941.78
2022-08-28T07:58:01.192Z,101951.03
2022-08-28T08:00:27.556Z,101951.41
2022-08-28T08:02:53.941Z,101951.03
2022-08-28T08:05:20.294Z,101962.84
2022-08-28T08:07:47.286Z,101958.75
2022-08-28T08:10:14.817Z,101961.31
2022-08-28T08:12:46.181Z,101972.28
2022-08-28T08:15:12.991Z,101976.75
2022-08-28T08:17:39.392Z,101977.63
2022-08-28T08:20:06.958Z,101969.72
2022-08-28T08:22:33.662Z,101974.88
2022-08-28T08:25:00.602Z,101967.50
2022-08-28T08:27:27.375Z,101971.97
2022-08-28T08:29:53.835Z,101973.16
2022-08-28T08:32:20.275Z,101969.22
2022-08-28T08:34:46.862Z,101974.72
2022-08-28T08:37:14.065Z,101965.31
2022-08-28T08:39:41.810Z,101964.44
2022-08-28T08:42:20.087Z,101962.72
2022-08-28T08:44:47.593Z,101963.03
2022-08-28T08:47:29.407Z,101972.16
2022-08-28T08:49:57.235Z,101967.19
2022-08-28T08:52:23.711Z,101978.81
2022-08-28T08:55:10.366Z,101979.47
2022-08-28T08:57:42.402Z,101971.97
2022-08-28T09:00:15.688Z,101971.63
2022-08-28T09:02:53.157Z,101962.88
2022-08-28T09:05:22.029Z,101968.91
2022-08-28T09:07:58.947Z,101962.38
2022-08-28T09:10:31.407Z,101961.53
2022-08-28T09:13:03.119Z,101963.94
2022-08-28T09:15:33.921Z,101960.00
2022-08-28T09:18:32.490Z,101969.25
2022-08-28T09:20:59.639Z,101967.38
2022-08-28T09:23:36.232Z,101970.97
2022-08-28T09:26:12.890Z,101968.25
2022-08-28T09:28:50.582Z,101966.34
2022-08-28T09:31:34.187Z,101970.97
2022-08-28T09:34:39.004Z,101969.41
2022-08-28T09:37:08.154Z,101963.94
2022-08-28T09:39:35.811Z,101959.63
2022-08-28T09:42:23.027Z,101961.72
2022-08-28T09:44:52.841Z,101959.53
2022-08-28T09:47:46.354Z,101952.16
2022-08-28T09:50:34.529Z,101958.50
2022-08-28T09:53:09.930Z,101963.84
2022-08-28T09:55:45.640Z,101974.81
2022-08-28T09:58:13.846Z,101965.41
2022-08-28T10:00:51.105Z,101960.59
2022-08-28T10:03:21.364Z,101966.59
2022-08-28T10:05:47.733Z,101956.31
2022-08-28T10:08:23.123Z,101960.78
2022-08-28T10:10:55.415Z,101961.81
2022-08-28T10:13:22.395Z,101955.13
2022-08-28T10:16:00.740Z,101962.66
2022-08-28T10:18:37.320Z,101958.88
2022-08-28T10:21:14.003Z,101965.41
2022-08-28T10:23:48.056Z,101966.13
2022-08-28T10:26:33.431Z,101969.72
2022-08-28T10:28:59.764Z,101969.84
2022-08-28T10:31:26.123Z,101967.28
2022-08-28T10:34:04.696Z,101963.84
2022-08-28T10:36:34.547Z,101969.50
2022-08-28T10:39:07.240Z,101972.41
2022-08-28T10:41:47.741Z,101963.00
2022-08-28T10:44:17.541Z,101974.81
2022-08-28T10:46:51.991Z,101964.38
2022-08-28T10:49:27.754Z,101964.88
2022-08-28T10:51:57.085Z,101957.38
2022-08-28T10:54:23.463Z,101961.47
2022-08-28T10:57:05.110Z,101967.28
2022-08-28T10:59:32.849Z,101961.81
2022-08-28T11:02:02.032Z,101957.03
2022-08-28T11:04:29.344Z,101968.00
2022-08-28T11:07:02.314Z,101961.28
2022-08-28T11:09:36.662Z,101963.88
2022-08-28T11:12:10.044Z,101964.03
2022-08-28T11:14:44.594Z,101964.56
2022-08-28T11:17:35.932Z,101958.59
2022-08-28T11:20:22.726Z,101959.25
2022-08-28T11:23:01.279Z,101971.09
2022-08-28T11:25:33.009Z,101963.03
2022-08-28T11:28:18.031Z,101956.69
2022-08-28T11:30:49.026Z,101957.88
2022-08-28T11:33:33.986Z,101963.56
2022-08-28T11:36:00.624Z,101965.97
2022-08-28T11:38:42.413Z,101966.81
2022-08-28T11:41:29.503Z,101971.97
2022-08-28T11:43:56.351Z,101960.81
2022-08-28T11:46:42.240Z,101961.66
2022-08-28T11:49:26.974Z,101961.53
2022-08-28T11:51:54.531Z,101963.22
2022-08-28T11:54:23.701Z,101963.22
2022-08-28T11:57:10.375Z,101959.78
2022-08-28T11:59:45.651Z,101958.06
2022-08-28T12:02:30.861Z,101967.88
2022-08-28T12:04:57.387Z,101961.53
2022-08-28T12:07:33.038Z,101970.75
2022-08-28T12:10:04.280Z,101964.41
2022-08-28T12:12:46.919Z,101951.41
2022-08-28T12:15:39.740Z,101950.22
2022-08-28T12:18:13.348Z,101943.00
2022-08-28T12:20:53.587Z,101953.97
2022-08-28T12:23:32.352Z,101946.78
2022-08-28T12:26:19.002Z,101947.63
2022-08-28T12:28:48.338Z,101944.88
2022-08-28T12:31:52.609Z,101948.31
2022-08-28T12:34:21.866Z,101939.91
2022-08-28T12:36:55.731Z,101947.47
2022-08-28T12:39:22.822Z,101943.84
2022-08-28T12:41:49.243Z,101945.59
2022-08-28T12:44:16.049Z,101942.84
2022-08-28T12:46:44.895Z,101953.63
2022-08-28T12:49:32.325Z,101947.13
2022-08-28T12:52:08.002Z,101943.84
2022-08-28T12:54:35.247Z,101936.16
2022-08-28T12:57:04.679Z,101935.13
2022-08-28T12:59:34.256Z,101928.44
2022-08-28T13:02:20.673Z,101927.41
2022-08-28T13:04:59.177Z,101921.75
2022-08-28T13:07:30.968Z,101920.03
2022-08-28T13:09:59.486Z,101924.31
2022-08-28T13:12:54.236Z,101933.06
2022-08-28T13:15:36.639Z,101935.97
2022-08-28T13:18:03.201Z,101935.13
2022-08-28T13:20:31.705Z,101922.06
2022-08-28T13:22:58.500Z,101932.56
2022-08-28T13:25:26.690Z,101926.22
2022-08-28T13:28:04.439Z,101912.00
2022-08-28T13:30:33.675Z,101911.09
2022-08-28T13:33:19.024Z,101907.34
2022-08-28T13:35:46.613Z,101915.25
2022-08-28T13:38:14.041Z,101903.22
2022-08-28T13:40:57.979Z,101902.91
2022-08-28T13:43:26.310Z,101911.13
2022-08-28T13:45:52.735Z,101916.75
2022-08-28T13:48:22.991Z,101915.25
2022-08-28T13:50:51.399Z,101905.97
2022-08-28T13:53:18.775Z,101911.13
2022-08-28T13:55:45.856Z,101910.09
2022-08-28T13:58:13.805Z,101913.00
2022-08-28T14:00:43.265Z,101907.53
2022-08-28T14:03:28.438Z,101909.41
2022-08-28T14:05:57.359Z,101909.22
2022-08-28T14:08:24.088Z,101898.06
2022-08-28T14:10:50.550Z,101904.59
2022-08-28T14:13:17.329Z,101896.56
2022-08-28T14:15:43.796Z,101899.47
2022-08-28T14:18:10.314Z,101884.53
2022-08-28T14:20:37.948Z,101894.47
2022-08-28T14:23:04.368Z,101887.78
2022-08-28T14:25:30.748Z,101888.13
2022-08-28T14:27:57.193Z,101896.03
2022-08-28T14:30:23.981Z,101889.50
2022-08-28T14:32:50.534Z,101895.00
2022-08-28T14:35:19.709Z,101899.47
2022-08-28T14:37:46.215Z,101895.16
2022-08-28T14:40:12.827Z,101897.75
2022-08-28T14:42:41.740Z,101895.16
2022-08-28T14:45:08.493Z,101890.22
2022-08-28T14:47:35.046Z,101891.94
2022-08-28T14:50:01.458Z,101880.13
2022-08-28T14:52:27.888Z,101875.28
2022-08-28T14:54:54.430Z,101880.63
2022-08-28T14:57:21.021Z,101886.47
2022-08-28T14:59:49.704Z,101886.59
2022-08-28T15:02:16.065Z,101883.84
2022-08-28T15:04:42.446Z,101890.75
2022-08-28T15:07:10.671Z,101889.53
2022-08-28T15:09:38.923Z,101882.34
2022-08-28T15:12:05.591Z,101883.19
2022-08-28T15:14:32.146Z,101886.13
2022-08-28T15:16:58.663Z,101883.69
2022-08-28T15:19:25.315Z,101876.50
2022-08-28T15:21:53.613Z,101876.31
2022-08-28T15:24:21.815Z,101875.31
2022-08-28T15:26:48.281Z,101880.25
2022-08-28T15:29:15.182Z,101874.44
2022-08-28T15:31:42.869Z,101860.16
2022-08-28T15:34:13.414Z,101866.16
2022-08-28T15:36:41.154Z,101857.03
2022-08-28T15:39:29.120Z,101858.94
2022-08-28T15:41:56.222Z,101863.38
2022-08-28T15:44:22.767Z,101872.31
2022-08-28T15:46:50.762Z,101868.06
2022-08-28T15:49:20.508Z,101873.38
2022-08-28T15:51:50.365Z,101869.41
2022-08-28T15:54:17.260Z,101873.91
2022-08-28T15:56:43.693Z,101876.66
2022-08-28T15:59:10.593Z,101864.31
2022-08-28T16:01:37.206Z,101863.06
2022-08-28T16:04:04.235Z,101861.88
2022-08-28T16:06:31.865Z,101860.16
2022-08-28T16:08:58.582Z,101858.63
2022-08-28T16:11:25.585Z,101866.50
2022-08-28T16:13:52.199Z,101865.50
2022-08-28T16:16:18.985Z,101870.66
2022-08-28T16:18:45.345Z,101860.84
2022-08-28T16:21:12.066Z,101859.47
2022-08-28T16:23:38.776Z,101863.22
2022-08-28T16:26:06.603Z,101867.84
2022-08-28T16:28:33.507Z,101867.97
2022-08-28T16:31:03.709Z,101870.22
2022-08-28T16:33:34.211Z,101872.59
2022-08-28T16:36:01.815Z,101863.31
2022-08-28T16:38:28.247Z,101867.09
2022-08-28T16:40:54.737Z,101874.44
2022-08-28T16:43:21.260Z,101871.00
2022-08-28T16:45:47.921Z,101867.41
2022-08-28T16:48:14.874Z,101866.16
2022-08-28T16:50:42.013Z,101873.38
2022-08-28T16:53:08.596Z,101871.50
2022-08-28T16:55:34.959Z,101873.75
2022-08-28T16:58:01.308Z,101867.69
2022-08-28T17:00:27.780Z,101872.84
2022-08-28T17:02:54.255Z,101870.94
2022-08-28T17:05:20.702Z,101872.28
2022-08-28T17:07:47.363Z,101874.91
2022-08-28T17:10:17.903Z,101869.41
2022-08-28T17:12:45.221Z,101872.53
2022-08-28T17:15:11.767Z,101869.25
2022-08-28T17:17:38.338Z,101869.16
2022-08-28T17:20:08.001Z,101875.66
2022-08-28T17:22:34.536Z,101873.25
2022-08-28T17:25:02.462Z,101873.09
2022-08-28T17:27:28.927Z,101880.13
2022-08-28T17:29:55.303Z,101883.06
2022-08-28T17:32:21.663Z,101878.75
2022-08-28T17:34:48.034Z,101877.69
2022-08-28T17:37:14.495Z,101871.16
2022-08-28T17:39:40.832Z,101876.66
2022-08-28T17:42:10.426Z,101875.63
2022-08-28T17:44:39.093Z,101878.38
2022-08-28T17:47:05.952Z,101882.50
2022-08-28T17:49:33.021Z,101886.28
2022-08-28T17:51:59.686Z,101881.16
2022-08-28T17:54:26.273Z,101884.59
2022-08-28T17:56:53.049Z,101875.00
2022-08-28T17:59:21.674Z,101880.84
2022-08-28T18:01:48.457Z,101886.84
2022-08-28T18:04:23.875Z,101893.75
2022-08-28T18:06:52.639Z,101896.16
2022-08-28T18:09:19.575Z,101893.25
2022-08-28T18:11:46.013Z,101885.53
2022-08-28T18:14:12.469Z,101887.25
2022-08-28T18:16:39.185Z,101889.31
2022-08-28T18:19:07.075Z,101895.84
2022-08-28T18:21:33.705Z,101897.41
2022-08-28T18:24:00.174Z,101897.56
2022-08-28T18:26:28.891Z,101899.97
2022-08-28T18:28:55.654Z,101903.75
2022-08-28T18:31:22.423Z,101903.91
2022-08-28T18:33:49.069Z,101912.50
2022-08-28T18:36:15.724Z,101905.66
2022-08-28T18:38:42.834Z,101912.34
2022-08-28T18:41:10.196Z,101909.44
2022-08-28T18:43:36.639Z,101911.47
2022-08-28T18:46:04.316Z,101912.34
2022-08-28T18:48:32.949Z,101917.81
2022-08-28T18:50:59.392Z,101924.16
2022-08-28T18:53:26.385Z,101924.53
2022-08-28T18:55:55.007Z,101932.94
2022-08-28T18:58:22.628Z,101921.97
2022-08-28T19:00:49.427Z,101933.28
2022-08-28T19:03:17.685Z,101934.81
2022-08-28T19:05:44.091Z,101939.44
2022-08-28T19:08:10.539Z,101945.78
2022-08-28T19:10:37.827Z,101945.13
2022-08-28T19:13:04.841Z,101954.75
2022-08-28T19:15:31.411Z,101956.63
2022-08-28T19:18:00.183Z,101957.63
2022-08-28T19:20:27.979Z,101956.97
2022-08-28T19:22:54.939Z,101967.06
2022-08-28T19:25:28.346Z,101965.19
2022-08-28T19:27:58.989Z,101962.75
2022-08-28T19:30:26.466Z,101963.09
2022-08-28T19:32:53.238Z,101964.28
2022-08-28T19:35:19.639Z,101966.00
2022-08-28T19:37:46.071Z,101971.50
2022-08-28T19:40:13.084Z,101978.00
2022-08-28T19:42:39.920Z,101971.66
2022-08-28T19:45:07.360Z,101972.88
2022-08-28T19:47:35.714Z,101978.53
2022-08-28T19:50:02.815Z,101979.38
2022-08-28T19:52:29.223Z,101980.41
2022-08-28T19:54:55.617Z,101977.66
2022-08-28T19:57:21.988Z,101980.41
2022-08-28T19:59:48.871Z,101981.44
2022-08-28T20:02:15.469Z,101982.47
2022-08-28T20:04:41.934Z,101982.47
2022-08-28T20:07:08.427Z,101990.69
2022-08-28T20:09:34.868Z,101991.56
2022-08-28T20:12:02.372Z,102001.69
2022-08-28T20:14:28.761Z,101995.47
2022-08-28T20:16:58.823Z,101992.75
2022-08-28T20:19:25.344Z,102005.59
2022-08-28T20:21:51.701Z,102003.03
2022-08-28T20:24:21.786Z,101996.53
2022-08-28T20:26:48.587Z,102009.19
2022-08-28T20:29:15.652Z,102009.19
2022-08-28T20:31:43.862Z,102004.75
2022-08-28T20:34:11.570Z,102012.13
2022-08-28T20:36:38.389Z,102002.00
2022-08-28T20:39:07.130Z,102010.25
2022-08-28T20:41:34.176Z,102011.28
2022-08-28T20:44:06.181Z,102012.13
2022-08-28T20:46:38.483Z,102012.28
2022-08-28T20:49:08.507Z,102014.88
2022-08-28T20:51:53.280Z,102017.63
2022-08-28T20:54:24.564Z,102019.66
2022-08-28T20:56:52.234Z,102030.81
2022-08-28T20:59:19.343Z,102029.97
2022-08-28T21:01:48.328Z,102030.81
2022-08-28T21:04:20.541Z,102043.69
2022-08-28T21:06:46.961Z,102042.78
2022-08-28T21:09:16.395Z,102043.69
2022-08-28T21:11:43.269Z,102044.53
2022-08-28T21:14:10.381Z,102048.28
2022-08-28T21:16:38.112Z,102046.56
2022-08-28T21:19:15.657Z,102040.22
2022-08-28T21:21:43.977Z,102033.91
2022-08-28T21:24:11.431Z,102035.78
2022-08-28T21:26:39.767Z,102037.66
2022-08-28T21:29:09.084Z,102039.53
2022-08-28T21:31:35.521Z,102040.41
2022-08-28T21:34:01.953Z,102047.75
2022-08-28T21:36:28.551Z,102046.91
2022-08-28T21:38:56.146Z,102046.91
2022-08-28T21:41:22.483Z,102047.09
2022-08-28T21:43:48.956Z,102050.69
2022-08-28T21:46:16.037Z,102050.69
2022-08-28T21:48:42.481Z,102050.69
2022-08-28T21:51:12.532Z,102057.03
2022-08-28T21:53:39.512Z,102056.31
2022-08-28T21:56:06.150Z,102057.22
2022-08-28T21:58:33.170Z,102059.94
2022-08-28T22:01:01.199Z,102058.91
2022-08-28T22:03:28.553Z,102070.75
2022-08-28T22:05:55.493Z,102060.63
2022-08-28T22:08:23.656Z,102055.84
2022-08-28T22:10:50.183Z,102055.31
2022-08-28T22:13:16.955Z,102053.44
2022-08-28T22:15:44.503Z,102055.31
2022-08-28T22:18:12.441Z,102058.91
2022-08-28T22:21:00.372Z,102062.69
2022-08-28T22:23:27.831Z,102062.84
2022-08-28T22:25:54.762Z,102062.84
2022-08-28T22:28:21.408Z,102058.22
2022-08-28T22:30:47.798Z,102061.66
2022-08-28T22:33:14.267Z,102059.63
2022-08-28T22:35:40.639Z,102059.94
2022-08-28T22:38:07.106Z,102056.50
2022-08-28T22:40:33.612Z,102053.75
2022-08-28T22:43:00.066Z,102052.91
2022-08-28T22:45:26.454Z,102052.03
2022-08-28T22:47:53.911Z,102064.72
2022-08-28T22:50:20.435Z,102071.94
2022-08-28T22:52:48.040Z,102069.88
2022-08-28T22:55:15.526Z,102069.19
2022-08-28T22:57:41.906Z,102065.59
2022-08-28T23:00:11.335Z,102063.03
2022-08-28T23:02:38.073Z,102064.41
2022-08-28T23:05:05.027Z,102065.09
2022-08-28T23:07:31.542Z,102064.22
2022-08-28T23:09:57.881Z,102052.38
2022-08-28T23:12:24.604Z,102061.66
2022-08-28T23:14:51.024Z,102049.81
2022-08-28T23:17:17.874Z,102054.63
2022-08-28T23:19:46.400Z,102052.03
2022-08-28T23:22:13.193Z,102049.31
2022-08-28T23:24:39.582Z,102053.56
2022-08-28T23:27:32.485Z,102043.50
2022-08-28T23:29:53.284Z,102047.22
2022-08-28T23:32:19.973Z,102046.38
2022-08-28T23:34:46.452Z,102050.16
2022-08-28T23:37:12.788Z,102048.44
2022-08-28T23:39:39.192Z,102053.94
2022-08-28T23:42:05.550Z,102044.16
2022-08-28T23:44:31.896Z,102044.81
2022-08-28T23:46:58.736Z,102052.91
2022-08-28T23:49:27.049Z,102055.47
2022-08-28T23:51:53.547Z,102049.97
2022-08-28T23:54:19.922Z,102054.63
2022-08-28T23:56:46.369Z,102047.22
2022-08-28T23:59:12.969Z,102047.22
